Time;durP1;ratioP1;P1;durP2;ratioP2;P2;SDS_P1;SDS_P2;PMS_P1;PMS_P2;Temp;Humidity;BMP_temperature;BMP_pressure;BME280_temperature;BME280_humidity;BME280_pressure;Samples;Min_cycle;Max_cycle;Signal;HPM_P1;HPM_P2
2023/02/18 00:00:38;;;;;;;10.13;8.73;;;11.50;99.90;;;;;;5051448;28;20181;-64
2023/02/18 00:03:03;;;;;;;8.57;7.67;;;11.50;99.90;;;;;;5050888;28;20178;-64
2023/02/18 00:05:29;;;;;;;9.90;8.97;;;11.40;99.90;;;;;;5051020;28;20675;-64
2023/02/18 00:07:54;;;;;;;10.17;9.20;;;11.50;99.90;;;;;;5051007;28;20187;-64
2023/02/18 00:10:20;;;;;;;8.73;7.97;;;11.50;99.90;;;;;;5050886;28;20229;-64
2023/02/18 00:12:46;;;;;;;9.23;8.43;;;11.50;99.90;;;;;;5051071;28;20186;-64
2023/02/18 00:15:12;;;;;;;9.77;8.97;;;11.40;99.90;;;;;;5050959;28;20186;-63
2023/02/18 00:17:37;;;;;;;9.17;8.27;;;11.40;99.90;;;;;;5051242;28;20213;-64
2023/02/18 00:20:05;;;;;;;9.27;8.40;;;11.40;99.90;;;;;;5051223;28;20578;-63
2023/02/18 00:22:30;;;;;;;10.47;9.57;;;11.40;99.90;;;;;;5051213;28;20552;-63
2023/02/18 00:24:56;;;;;;;11.10;8.93;;;11.40;99.90;;;;;;5050622;28;20198;-63
2023/02/18 00:27:22;;;;;;;9.93;9.03;;;11.40;99.90;;;;;;5050815;28;20623;-64
2023/02/18 00:29:47;;;;;;;10.10;9.13;;;11.40;99.90;;;;;;5050560;28;20178;-64
2023/02/18 00:32:13;;;;;;;10.83;9.87;;;11.40;99.90;;;;;;5050909;28;20260;-63
2023/02/18 00:34:38;;;;;;;10.73;8.83;;;11.40;99.90;;;;;;5050818;28;20679;-63
2023/02/18 00:37:04;;;;;;;9.57;8.50;;;11.40;99.90;;;;;;5050434;28;20191;-64
2023/02/18 00:39:29;;;;;;;9.53;8.80;;;11.40;99.90;;;;;;5050435;28;20712;-63
2023/02/18 00:41:55;;;;;;;8.87;8.10;;;11.40;99.90;;;;;;5053924;28;20175;-64
2023/02/18 00:44:21;;;;;;;9.67;8.77;;;11.40;99.90;;;;;;5054472;28;20214;-64
2023/02/18 00:46:48;;;;;;;9.93;8.87;;;11.40;99.90;;;;;;5054238;28;20774;-64
2023/02/18 00:49:14;;;;;;;9.50;8.73;;;11.40;99.90;;;;;;5054308;28;20181;-64
2023/02/18 00:51:39;;;;;;;9.23;8.33;;;11.40;99.90;;;;;;5054388;28;20250;-63
2023/02/18 00:54:05;;;;;;;7.77;7.10;;;11.50;99.90;;;;;;5053210;28;20662;-63
2023/02/18 00:56:30;;;;;;;8.40;7.07;;;11.40;99.90;;;;;;5054264;28;20191;-63
2023/02/18 00:58:56;;;;;;;7.93;7.23;;;11.40;99.90;;;;;;5053968;28;20174;-63
2023/02/18 01:01:23;;;;;;;9.07;8.27;;;11.50;99.90;;;;;;5053986;28;20636;-63
2023/02/18 01:03:48;;;;;;;9.17;8.47;;;11.50;99.90;;;;;;5054164;28;20189;-63
2023/02/18 01:06:14;;;;;;;8.83;8.17;;;11.50;99.90;;;;;;5054027;28;20199;-63
2023/02/18 01:08:40;;;;;;;9.37;8.47;;;11.50;99.90;;;;;;5054059;28;20179;-63
2023/02/18 01:11:07;;;;;;;9.40;8.60;;;11.50;99.90;;;;;;5053595;28;20207;-64
2023/02/18 01:13:33;;;;;;;9.03;7.97;;;11.50;99.90;;;;;;5054054;28;20205;-63
2023/02/18 01:15:59;;;;;;;9.13;8.23;;;11.50;99.90;;;;;;5053831;28;20175;-63
2023/02/18 01:18:25;;;;;;;8.30;7.60;;;11.50;99.90;;;;;;5053887;28;20171;-63
2023/02/18 01:20:50;;;;;;;9.07;8.37;;;11.50;99.90;;;;;;5053451;28;20178;-63
2023/02/18 01:23:17;;;;;;;9.03;8.37;;;11.40;99.90;;;;;;5053622;28;20177;-63
2023/02/18 01:25:42;;;;;;;8.67;7.97;;;11.40;99.90;;;;;;5053837;28;20221;-63
2023/02/18 01:28:11;;;;;;;8.67;7.97;;;11.50;99.90;;;;;;5053511;28;20672;-64
2023/02/18 01:30:37;;;;;;;8.30;7.60;;;11.50;99.90;;;;;;5053453;28;20714;-63
2023/02/18 01:33:02;;;;;;;8.63;7.83;;;11.50;99.90;;;;;;5053390;28;20201;-64
2023/02/18 01:35:28;;;;;;;8.37;7.63;;;11.50;99.90;;;;;;5053546;28;20191;-64
2023/02/18 01:37:54;;;;;;;7.53;7.03;;;11.50;99.90;;;;;;5053355;28;20198;-63
2023/02/18 01:40:24;;;;;;;7.83;7.23;;;11.50;99.90;;;;;;5053229;28;20201;-64
2023/02/18 01:42:50;;;;;;;8.37;7.77;;;11.50;99.90;;;;;;5053824;28;20211;-64
2023/02/18 01:45:34;;;;;;;8.20;7.50;;;11.50;99.90;;;;;;5053356;28;20190;-63
2023/02/18 01:48:04;;;;;;;7.63;7.13;;;11.50;99.90;;;;;;5053566;28;20723;-64
2023/02/18 01:50:35;;;;;;;7.97;7.37;;;11.40;99.90;;;;;;5053157;28;20254;-64
2023/02/18 01:53:02;;;;;;;8.17;7.47;;;11.40;99.90;;;;;;5051574;28;20178;-63
2023/02/18 01:55:28;;;;;;;7.80;7.17;;;11.40;99.90;;;;;;5053292;28;20437;-64
2023/02/18 01:57:54;;;;;;;7.97;7.17;;;11.40;99.90;;;;;;5052968;28;20580;-64
2023/02/18 02:00:22;;;;;;;11.13;8.60;;;11.40;99.90;;;;;;5052915;28;20179;-64
2023/02/18 02:02:50;;;;;;;8.90;8.20;;;11.30;99.90;;;;;;5053392;28;20177;-64
2023/02/18 02:05:17;;;;;;;9.90;9.10;;;11.30;99.90;;;;;;5052848;28;20253;-64
2023/02/18 02:07:44;;;;;;;9.53;8.77;;;11.40;99.90;;;;;;5052956;28;20603;-64
2023/02/18 02:10:13;;;;;;;8.63;7.93;;;11.40;99.90;;;;;;5052599;28;20182;-63
2023/02/18 02:12:44;;;;;;;7.80;7.30;;;11.40;99.90;;;;;;5052884;28;20174;-63
2023/02/18 02:15:20;;;;;;;8.07;7.47;;;11.40;99.90;;;;;;5052642;28;20201;-63
2023/02/18 02:18:03;;;;;;;7.50;6.93;;;11.40;99.90;;;;;;5052772;28;20191;-63
2023/02/18 02:20:50;;;;;;;8.23;7.30;;;11.40;99.90;;;;;;5052477;28;20171;-64
2023/02/18 02:23:44;;;;;;;7.10;6.50;;;11.40;99.90;;;;;;5052530;28;20198;-64
2023/02/18 02:26:16;;;;;;;6.53;6.13;;;11.40;99.90;;;;;;5052449;28;20229;-64
2023/02/18 02:29:09;;;;;;;7.20;6.50;;;11.40;99.90;;;;;;5052427;28;20257;-63
2023/02/18 02:31:43;;;;;;;7.27;6.67;;;11.30;99.90;;;;;;5052537;28;20178;-63
2023/02/18 02:34:48;;;;;;;8.23;6.83;;;11.30;99.90;;;;;;5052330;28;20628;-64
2023/02/18 02:37:30;;;;;;;6.70;6.20;;;11.30;99.90;;;;;;5052160;28;20644;-64
2023/02/18 02:40:28;;;;;;;7.57;6.97;;;11.30;99.90;;;;;;5052001;28;20254;-64
2023/02/18 02:42:53;;;;;;;8.70;7.90;;;11.30;99.90;;;;;;5052169;28;20206;-64
2023/02/18 02:45:48;;;;;;;7.83;7.23;;;11.40;99.90;;;;;;5052020;28;20616;-64
2023/02/18 02:48:19;;;;;;;8.90;8.03;;;11.40;99.90;;;;;;5052110;28;20217;-62
2023/02/18 02:51:07;;;;;;;8.87;8.20;;;11.40;99.90;;;;;;5051895;28;20171;-64
2023/02/18 02:53:34;;;;;;;9.50;8.50;;;11.40;99.90;;;;;;5051352;28;20659;-64
2023/02/18 02:56:00;;;;;;;9.03;8.13;;;11.50;99.90;;;;;;5051945;28;20178;-64
2023/02/18 02:58:26;;;;;;;9.53;8.57;;;11.50;99.90;;;;;;5052075;28;20174;-64
2023/02/18 03:01:04;;;;;;;9.00;8.30;;;11.50;99.90;;;;;;5051704;28;20170;-63
2023/02/18 03:03:43;;;;;;;9.33;8.43;;;11.50;99.90;;;;;;5051660;28;20660;-64
2023/02/18 03:06:27;;;;;;;9.33;8.43;;;11.60;99.90;;;;;;5051627;28;20214;-63
2023/02/18 03:09:14;;;;;;;9.90;8.90;;;11.60;99.90;;;;;;5051700;28;20166;-63
2023/02/18 03:12:17;;;;;;;12.40;10.33;;;11.60;99.90;;;;;;5051756;28;20181;-63
2023/02/18 03:14:43;;;;;;;10.67;9.07;;;11.70;99.90;;;;;;5051962;28;20166;-63
2023/02/18 03:17:21;;;;;;;10.37;9.33;;;11.60;99.90;;;;;;5051652;28;20296;-63
2023/02/18 03:19:53;;;;;;;9.23;8.17;;;11.70;99.90;;;;;;5051245;28;20186;-64
2023/02/18 03:22:30;;;;;;;9.83;8.07;;;11.70;99.90;;;;;;5051744;28;20205;-64
2023/02/18 03:24:57;;;;;;;8.60;7.87;;;11.70;99.90;;;;;;5051393;28;20604;-64
2023/02/18 03:27:27;;;;;;;10.07;8.27;;;11.70;99.90;;;;;;5051369;28;20248;-64
2023/02/18 03:30:01;;;;;;;9.13;8.37;;;11.70;99.90;;;;;;5051203;28;20167;-64
2023/02/18 03:32:30;;;;;;;7.97;7.27;;;11.70;99.90;;;;;;5051632;28;20575;-64
2023/02/18 03:35:03;;;;;;;7.47;6.97;;;11.70;99.90;;;;;;5051233;28;20324;-64
2023/02/18 03:37:32;;;;;;;7.43;6.87;;;11.70;99.90;;;;;;5051610;28;20199;-66
2023/02/18 03:40:00;;;;;;;8.37;7.50;;;11.60;99.90;;;;;;5052685;28;20186;-66
2023/02/18 03:42:27;;;;;;;9.97;6.67;;;11.60;99.90;;;;;;5053127;28;20568;-69
2023/02/18 03:44:53;;;;;;;6.40;6.00;;;11.50;99.90;;;;;;5052933;28;20206;-69
2023/02/18 03:47:19;;;;;;;6.43;5.93;;;11.40;99.90;;;;;;5052478;28;20217;-69
2023/02/18 03:49:44;;;;;;;7.17;6.57;;;11.40;99.90;;;;;;5052491;28;20171;-67
2023/02/18 03:52:10;;;;;;;7.07;6.47;;;11.30;99.90;;;;;;5052635;28;20702;-66
2023/02/18 03:54:36;;;;;;;7.33;6.83;;;11.30;99.90;;;;;;5052474;28;20228;-65
2023/02/18 03:57:02;;;;;;;7.13;6.53;;;11.30;99.90;;;;;;5052547;28;20191;-67
2023/02/18 03:59:27;;;;;;;7.00;6.50;;;11.30;99.90;;;;;;5052624;28;20167;-67
2023/02/18 04:01:53;;;;;;;6.20;5.80;;;11.30;99.90;;;;;;5052555;28;20175;-68
2023/02/18 04:04:19;;;;;;;6.70;6.30;;;11.30;99.90;;;;;;5051167;28;20253;-67
2023/02/18 04:06:44;;;;;;;6.53;6.03;;;11.30;99.90;;;;;;5052683;28;20191;-66
2023/02/18 04:09:10;;;;;;;7.00;5.70;;;11.30;99.90;;;;;;5051919;28;20175;-66
2023/02/18 04:11:37;;;;;;;6.20;5.70;;;11.30;99.90;;;;;;5052365;28;20167;-68
2023/02/18 04:14:03;;;;;;;6.30;5.90;;;11.30;99.90;;;;;;5052810;28;20166;-69
2023/02/18 04:16:29;;;;;;;5.13;4.87;;;11.30;99.90;;;;;;5055183;28;20186;-67
2023/02/18 04:18:54;;;;;;;4.83;4.63;;;11.30;99.90;;;;;;5056409;28;20171;-66
2023/02/18 04:21:20;;;;;;;5.40;5.10;;;11.30;99.90;;;;;;5054750;28;20593;-67
2023/02/18 04:23:46;;;;;;;6.13;5.83;;;11.20;99.90;;;;;;5056349;28;20167;-69
2023/02/18 04:26:11;;;;;;;5.77;5.47;;;11.10;99.90;;;;;;5056493;28;20206;-69
2023/02/18 04:28:37;;;;;;;5.70;5.40;;;11.00;99.90;;;;;;5056613;28;20178;-68
2023/02/18 04:31:03;;;;;;;5.27;4.97;;;10.90;99.90;;;;;;5055533;28;20175;-66
2023/02/18 04:33:28;;;;;;;5.27;4.97;;;10.90;99.90;;;;;;5056338;28;20167;-66
2023/02/18 04:35:54;;;;;;;5.60;5.30;;;10.90;99.90;;;;;;5055931;28;20174;-69
2023/02/18 04:38:20;;;;;;;5.37;5.17;;;10.90;99.90;;;;;;5056102;28;20175;-66
2023/02/18 04:40:45;;;;;;;6.37;5.97;;;10.90;99.90;;;;;;5055816;28;20197;-68
2023/02/18 04:43:11;;;;;;;5.90;5.60;;;10.90;99.90;;;;;;5054398;28;20218;-67
2023/02/18 04:45:37;;;;;;;5.63;5.33;;;10.90;99.90;;;;;;5056350;28;20203;-68
2023/02/18 04:48:03;;;;;;;5.60;5.30;;;10.90;99.90;;;;;;5055678;28;20202;-67
2023/02/18 04:50:28;;;;;;;5.23;5.03;;;10.80;99.90;;;;;;5055715;28;20170;-66
2023/02/18 04:52:54;;;;;;;5.23;4.93;;;10.80;99.90;;;;;;5055659;28;20171;-68
2023/02/18 04:55:19;;;;;;;4.87;4.57;;;10.80;99.90;;;;;;5055352;28;20179;-67
2023/02/18 04:57:45;;;;;;;5.37;5.07;;;10.80;99.90;;;;;;5056028;28;20202;-68
2023/02/18 05:00:15;;;;;;;5.73;5.43;;;10.70;99.90;;;;;;5055584;28;20667;-65
2023/02/18 05:02:41;;;;;;;5.90;5.60;;;10.70;99.90;;;;;;5055909;28;20175;-68
2023/02/18 05:05:07;;;;;;;5.30;5.10;;;10.70;99.90;;;;;;5055205;28;20256;-70
2023/02/18 05:07:33;;;;;;;5.40;5.20;;;10.70;99.90;;;;;;5055827;28;20187;-68
2023/02/18 05:09:58;;;;;;;5.77;5.47;;;10.70;99.90;;;;;;5055177;28;20229;-68
2023/02/18 05:12:24;;;;;;;5.70;5.40;;;10.60;99.90;;;;;;5055512;28;20587;-69
2023/02/18 05:14:50;;;;;;;5.67;5.37;;;10.60;99.90;;;;;;5055971;28;20202;-68
2023/02/18 05:17:15;;;;;;;5.47;5.17;;;10.60;99.90;;;;;;5055208;28;20202;-67
2023/02/18 05:19:41;;;;;;;5.80;5.50;;;10.60;99.90;;;;;;5054922;28;20179;-68
2023/02/18 05:22:07;;;;;;;5.47;5.27;;;10.60;99.90;;;;;;5055315;28;20175;-66
2023/02/18 05:24:32;;;;;;;5.83;5.53;;;10.60;99.90;;;;;;5056063;28;20290;-67
2023/02/18 05:26:58;;;;;;;5.70;5.40;;;10.60;99.90;;;;;;5054307;28;20219;-68
2023/02/18 05:29:23;;;;;;;6.60;6.00;;;10.60;99.90;;;;;;5053698;28;20178;-66
2023/02/18 05:31:49;;;;;;;6.00;5.57;;;10.50;99.90;;;;;;5055233;28;20672;-68
2023/02/18 05:34:15;;;;;;;6.03;5.63;;;10.60;99.90;;;;;;5055033;28;20656;-68
2023/02/18 05:36:40;;;;;;;5.47;5.17;;;10.50;99.90;;;;;;5053875;28;20248;-67
2023/02/18 05:39:06;;;;;;;5.90;5.60;;;10.60;99.90;;;;;;5054253;28;20171;-65
2023/02/18 05:41:31;;;;;;;5.87;5.57;;;10.60;99.90;;;;;;5054973;28;20568;-67
2023/02/18 05:46:41;;;;;;;6.43;6.03;;;10.50;99.90;;;;;;5054636;28;20698;-68
2023/02/18 05:49:07;;;;;;;5.43;5.13;;;10.50;99.90;;;;;;5054085;28;20159;-67
2023/02/18 05:51:32;;;;;;;6.00;5.60;;;10.50;99.90;;;;;;5054950;28;20226;-67
2023/02/18 05:53:58;;;;;;;6.23;5.83;;;10.50;99.90;;;;;;5054645;28;20167;-68
2023/02/18 05:56:24;;;;;;;7.00;6.50;;;10.50;99.90;;;;;;5054556;28;20229;-68
2023/02/18 05:58:49;;;;;;;6.70;6.30;;;10.50;99.90;;;;;;5054773;28;20171;-67
2023/02/18 06:01:15;;;;;;;6.30;5.90;;;10.40;99.90;;;;;;5054019;28;20167;-68
2023/02/18 06:03:40;;;;;;;6.43;6.03;;;10.40;99.90;;;;;;5054950;28;20250;-67
2023/02/18 06:06:06;;;;;;;5.80;5.50;;;10.40;99.90;;;;;;5053006;28;20322;-67
2023/02/18 06:08:32;;;;;;;5.90;5.50;;;10.40;99.90;;;;;;5054843;28;20250;-69
2023/02/18 06:10:58;;;;;;;5.70;5.40;;;10.40;99.90;;;;;;5053850;28;20543;-68
2023/02/18 06:13:24;;;;;;;6.17;5.87;;;10.40;99.90;;;;;;5054564;28;20245;-68
2023/02/18 06:15:50;;;;;;;6.10;5.70;;;10.40;99.90;;;;;;5054313;28;20253;-66
2023/02/18 06:18:16;;;;;;;6.37;5.97;;;10.40;99.90;;;;;;5054267;28;20171;-67
2023/02/18 06:20:42;;;;;;;5.50;5.20;;;10.30;99.90;;;;;;5054070;28;20171;-68
2023/02/18 06:23:08;;;;;;;5.70;5.40;;;10.30;99.90;;;;;;5054136;28;20170;-68
2023/02/18 06:25:33;;;;;;;5.60;5.30;;;10.30;99.90;;;;;;5054003;28;20221;-70
2023/02/18 06:27:59;;;;;;;5.93;5.63;;;10.30;99.90;;;;;;5053807;28;20202;-68
2023/02/18 06:30:24;;;;;;;5.60;5.27;;;10.40;99.90;;;;;;5053611;28;20266;-69
2023/02/18 06:32:50;;;;;;;5.43;5.13;;;10.30;99.90;;;;;;5053819;28;20171;-67
2023/02/18 06:35:16;;;;;;;5.00;4.80;;;10.30;99.90;;;;;;5052282;28;20707;-69
2023/02/18 06:37:41;;;;;;;5.73;5.43;;;10.30;99.90;;;;;;5054034;28;20281;-68
2023/02/18 06:40:07;;;;;;;5.30;5.00;;;10.30;99.90;;;;;;5052281;28;20179;-67
2023/02/18 06:42:33;;;;;;;5.57;5.27;;;10.30;99.90;;;;;;5053890;28;20692;-64
2023/02/18 06:44:58;;;;;;;5.63;5.33;;;10.30;99.90;;;;;;5052028;28;20281;-63
2023/02/18 06:47:24;;;;;;;5.53;5.27;;;10.30;99.90;;;;;;5051814;28;20206;-64
2023/02/18 06:49:50;;;;;;;5.77;5.50;;;10.30;99.90;;;;;;5051615;28;20530;-64
2023/02/18 06:52:15;;;;;;;6.00;5.60;;;10.30;99.90;;;;;;5052026;28;20174;-64
2023/02/18 06:54:41;;;;;;;5.53;5.33;;;10.30;99.90;;;;;;5052188;28;20167;-65
2023/02/18 06:57:07;;;;;;;6.40;5.90;;;10.30;99.90;;;;;;5051914;28;20199;-64
2023/02/18 06:59:32;;;;;;;6.00;5.70;;;10.40;99.90;;;;;;5051678;28;20167;-64
2023/02/18 07:01:58;;;;;;;5.90;5.60;;;10.40;99.90;;;;;;5051949;28;20170;-64
2023/02/18 07:04:23;;;;;;;5.33;5.10;;;10.40;99.90;;;;;;5051911;28;20199;-64
2023/02/18 07:06:49;;;;;;;5.43;5.23;;;10.50;99.90;;;;;;5050554;28;20198;-65
2023/02/18 07:09:15;;;;;;;6.00;5.70;;;10.50;99.90;;;;;;5050457;28;20171;-65
2023/02/18 07:11:40;;;;;;;5.60;5.20;;;10.50;99.90;;;;;;5051957;28;20197;-64
2023/02/18 07:14:06;;;;;;;7.80;7.40;;;10.50;99.90;;;;;;5051551;28;20185;-64
2023/02/18 07:16:31;;;;;;;5.07;4.87;;;10.60;99.90;;;;;;5051704;28;20268;-64
2023/02/18 07:18:57;;;;;;;5.60;5.30;;;10.60;99.90;;;;;;5051640;28;20532;-64
2023/02/18 07:21:23;;;;;;;5.53;5.23;;;10.70;99.90;;;;;;5051471;28;20174;-64
2023/02/18 07:23:48;;;;;;;5.87;5.57;;;10.70;99.90;;;;;;5052115;28;20330;-66
2023/02/18 07:26:14;;;;;;;5.70;5.40;;;10.70;99.90;;;;;;5051388;28;20206;-64
2023/02/18 07:28:40;;;;;;;5.77;5.47;;;10.80;99.90;;;;;;5051627;28;20233;-64
2023/02/18 07:31:07;;;;;;;5.97;5.67;;;10.80;99.90;;;;;;5051109;28;20163;-64
2023/02/18 07:33:32;;;;;;;5.30;5.10;;;10.90;99.90;;;;;;5051458;28;20197;-64
2023/02/18 07:36:00;;;;;;;6.03;5.73;;;11.00;99.90;;;;;;5051392;28;20174;-64
2023/02/18 07:38:27;;;;;;;5.97;5.67;;;11.00;99.90;;;;;;5051359;28;20178;-64
2023/02/18 07:40:54;;;;;;;5.80;5.50;;;10.90;99.90;;;;;;5050977;28;20170;-64
2023/02/18 07:43:20;;;;;;;5.70;5.40;;;10.80;99.90;;;;;;5051076;28;20240;-64
2023/02/18 07:45:46;;;;;;;6.40;6.00;;;10.70;99.90;;;;;;5051246;28;20207;-64
2023/02/18 07:48:12;;;;;;;6.17;5.87;;;10.70;99.90;;;;;;5074649;22;20364;-63
2023/02/18 07:50:40;;;;;;;5.20;5.00;;;10.80;99.90;;;;;;5050738;28;20182;-63
2023/02/18 07:53:06;;;;;;;6.10;5.83;;;10.80;99.90;;;;;;5050462;28;20167;-66
2023/02/18 07:55:51;;;;;;;6.00;5.70;;;10.80;99.90;;;;;;5051256;28;20174;-66
2023/02/18 07:58:27;;;;;;;6.10;5.80;;;10.70;99.90;;;;;;5051136;28;20701;-66
2023/02/18 08:00:54;;;;;;;5.87;5.67;;;10.70;99.90;;;;;;5050979;28;20320;-65
2023/02/18 08:03:30;;;;;;;6.67;6.37;;;10.70;99.90;;;;;;5051209;28;20167;-66
2023/02/18 08:05:57;;;;;;;6.80;6.50;;;10.60;99.90;;;;;;5051246;28;20205;-66
2023/02/18 08:08:25;;;;;;;7.37;5.67;;;10.60;99.90;;;;;;5051605;28;20201;-66
2023/02/18 08:10:53;;;;;;;10.20;9.70;;;10.60;99.90;;;;;;5050952;28;20166;-66
2023/02/18 08:13:18;;;;;;;8.47;8.07;;;10.60;99.90;;;;;;5051061;28;20182;-66
2023/02/18 08:15:44;;;;;;;6.00;5.70;;;10.60;99.90;;;;;;5051264;28;20648;-66
2023/02/18 08:18:22;;;;;;;5.63;5.40;;;10.60;99.90;;;;;;5050959;28;20191;-67
2023/02/18 08:20:50;;;;;;;8.03;7.07;;;10.60;99.90;;;;;;5051879;28;20167;-67
2023/02/18 08:23:18;;;;;;;9.90;9.40;;;10.60;99.90;;;;;;5050948;28;20174;-66
2023/02/18 08:25:49;;;;;;;8.70;8.00;;;10.60;99.90;;;;;;5051058;28;20683;-65
2023/02/18 08:28:15;;;;;;;6.00;5.70;;;10.60;99.90;;;;;;5050757;28;20191;-66
2023/02/18 08:30:48;;;;;;;6.07;5.77;;;10.60;99.90;;;;;;5050777;28;20175;-66
2023/02/18 08:33:15;;;;;;;9.37;8.70;;;10.60;99.90;;;;;;5049680;28;20252;-66
2023/02/18 08:35:40;;;;;;;6.03;5.73;;;10.50;99.90;;;;;;5051146;28;20183;-66
2023/02/18 08:38:06;;;;;;;7.30;6.90;;;10.50;99.90;;;;;;5050903;28;20493;-65
2023/02/18 08:40:32;;;;;;;7.20;6.80;;;10.40;99.90;;;;;;5050784;28;20178;-66
2023/02/18 08:42:58;;;;;;;7.67;6.73;;;10.30;99.90;;;;;;5050990;28;20170;-66
2023/02/18 08:45:23;;;;;;;11.90;11.10;;;10.20;99.90;;;;;;5050789;28;20237;-67
2023/02/18 08:47:49;;;;;;;7.63;7.20;;;10.10;99.90;;;;;;5050706;28;20207;-66
2023/02/18 08:50:14;;;;;;;6.13;5.83;;;10.00;99.90;;;;;;5050588;28;20171;-67
2023/02/18 08:52:40;;;;;;;7.43;6.73;;;9.90;99.90;;;;;;5050446;28;20171;-66
2023/02/18 08:55:06;;;;;;;6.30;5.90;;;9.90;99.90;;;;;;5050802;28;20183;-66
2023/02/18 08:57:32;;;;;;;7.23;5.90;;;10.00;99.90;;;;;;5050888;28;20230;-65
2023/02/18 08:59:58;;;;;;;6.87;6.27;;;10.00;99.90;;;;;;5050350;28;20568;-66
2023/02/18 09:02:23;;;;;;;6.60;6.20;;;10.10;99.90;;;;;;5051390;28;20179;-66
2023/02/18 09:04:49;;;;;;;7.63;7.03;;;10.20;99.90;;;;;;5054306;28;20190;-65
2023/02/18 09:07:14;;;;;;;5.83;5.53;;;10.30;99.90;;;;;;5054129;28;20190;-65
2023/02/18 09:09:40;;;;;;;7.30;6.67;;;10.40;99.90;;;;;;5053838;28;20270;-65
2023/02/18 09:12:07;;;;;;;6.20;5.80;;;10.50;99.90;;;;;;5054012;28;20167;-65
2023/02/18 09:14:33;;;;;;;6.23;5.80;;;10.50;99.90;;;;;;5054114;28;20174;-64
2023/02/18 09:16:59;;;;;;;5.77;5.47;;;10.60;99.90;;;;;;5053925;28;20276;-64
2023/02/18 09:19:25;;;;;;;6.57;5.57;;;10.70;99.90;;;;;;5053618;28;20167;-65
2023/02/18 09:21:52;;;;;;;5.63;5.33;;;10.80;99.90;;;;;;5054103;28;20171;-65
2023/02/18 09:24:18;;;;;;;6.40;6.00;;;10.80;99.90;;;;;;5053878;28;20228;-65
2023/02/18 09:26:44;;;;;;;25.10;23.33;;;10.90;99.90;;;;;;5053738;28;20698;-67
2023/02/18 09:29:10;;;;;;;7.10;6.40;;;11.00;99.90;;;;;;5053403;28;20166;-67
2023/02/18 09:31:37;;;;;;;6.40;6.00;;;11.10;99.90;;;;;;5053621;28;20205;-65
2023/02/18 09:34:02;;;;;;;8.10;6.57;;;11.20;99.90;;;;;;5054231;28;20531;-65
2023/02/18 09:36:28;;;;;;;6.50;6.00;;;11.30;99.90;;;;;;5054203;28;20232;-65
2023/02/18 09:38:54;;;;;;;6.87;6.57;;;11.30;99.90;;;;;;5053599;28;20179;-65
2023/02/18 09:41:33;;;;;;;12.10;11.30;;;11.30;99.90;;;;;;5053450;28;20194;-65
2023/02/18 09:44:08;;;;;;;14.80;13.93;;;11.20;99.90;;;;;;5053785;28;20581;-66
2023/02/18 09:46:41;;;;;;;6.33;5.80;;;11.30;99.90;;;;;;5053416;28;20222;-66
2023/02/18 09:49:15;;;;;;;6.50;6.10;;;11.30;99.90;;;;;;5053049;28;20167;-65
2023/02/18 09:51:40;;;;;;;8.50;7.80;;;11.20;99.90;;;;;;5053289;28;20238;-66
2023/02/18 09:54:11;;;;;;;6.03;5.60;;;11.10;99.90;;;;;;5052872;28;20214;-64
2023/02/18 09:56:38;;;;;;;7.87;7.47;;;11.10;99.90;;;;;;5053481;28;20195;-66
2023/02/18 09:59:08;;;;;;;6.30;5.70;;;11.10;99.90;;;;;;5053208;28;20198;-65
2023/02/18 10:01:37;;;;;;;6.43;6.03;;;11.10;99.90;;;;;;5053011;28;20174;-63
2023/02/18 10:04:09;;;;;;;12.83;6.70;;;11.10;99.90;;;;;;5053117;28;20177;-63
2023/02/18 10:06:35;;;;;;;7.93;7.43;;;11.10;99.90;;;;;;5053120;28;20199;-64
2023/02/18 10:09:13;;;;;;;8.27;7.27;;;11.20;99.90;;;;;;5053029;28;20277;-65
2023/02/18 10:11:44;;;;;;;10.00;6.47;;;11.20;99.90;;;;;;5053011;28;20178;-64
2023/02/18 10:14:12;;;;;;;23.30;10.83;;;11.30;99.90;;;;;;5052345;28;20671;-64
2023/02/18 10:16:38;;;;;;;7.80;7.20;;;11.30;99.90;;;;;;5052841;28;20187;-64
2023/02/18 10:19:28;;;;;;;13.37;6.30;;;11.30;99.90;;;;;;5052674;28;20667;-64
2023/02/18 10:21:55;;;;;;;8.20;7.80;;;11.40;99.90;;;;;;5052750;28;20663;-63
2023/02/18 10:24:36;;;;;;;6.20;5.30;;;11.50;99.90;;;;;;5052606;28;20217;-64
2023/02/18 10:27:05;;;;;;;6.33;6.03;;;11.40;99.90;;;;;;5052635;28;20600;-64
2023/02/18 10:29:31;;;;;;;6.30;5.80;;;11.40;99.90;;;;;;5052300;28;20174;-64
2023/02/18 10:32:22;;;;;;;6.80;6.30;;;11.40;99.90;;;;;;5052723;28;20170;-64
2023/02/18 10:35:10;;;;;;;6.80;6.30;;;11.40;99.90;;;;;;5052491;28;20190;-64
2023/02/18 10:38:19;;;;;;;11.70;11.10;;;11.40;99.90;;;;;;5052346;28;20186;-64
2023/02/18 10:40:56;;;;;;;7.23;6.57;;;11.40;99.90;;;;;;5051975;28;20551;-65
2023/02/18 10:43:44;;;;;;;8.73;8.33;;;11.30;99.90;;;;;;5052379;28;20183;-64
2023/02/18 10:46:42;;;;;;;8.10;7.63;;;11.20;99.90;;;;;;5052181;28;20212;-64
2023/02/18 10:49:38;;;;;;;9.30;6.03;;;11.20;99.90;;;;;;5028269;28;20281;-64
2023/02/18 10:52:05;;;;;;;24.50;23.33;;;11.30;99.90;;;;;;5051700;28;20178;-64
2023/02/18 10:54:51;;;;;;;14.50;13.23;;;11.20;99.90;;;;;;5052087;28;20179;-65
2023/02/18 10:57:20;;;;;;;6.83;6.37;;;10.90;99.90;;;;;;5052024;28;20198;-65
2023/02/18 11:00:18;;;;;;;8.60;7.80;;;10.60;99.90;;;;;;5051894;28;20616;-65
2023/02/18 11:02:44;;;;;;;14.13;6.97;;;10.50;99.90;;;;;;5051759;28;20194;-65
2023/02/18 11:05:24;;;;;;;7.03;6.33;;;10.40;99.90;;;;;;5052043;28;20202;-65
2023/02/18 11:07:53;;;;;;;8.37;7.83;;;10.30;99.90;;;;;;5052194;28;20247;-65
2023/02/18 11:10:24;;;;;;;7.10;6.77;;;10.30;99.90;;;;;;5051616;28;20171;-64
2023/02/18 11:13:12;;;;;;;7.30;6.93;;;10.20;99.90;;;;;;5052072;28;20185;-65
2023/02/18 11:15:52;;;;;;;6.93;6.53;;;10.20;99.90;;;;;;5051669;28;20183;-65
2023/02/18 11:18:37;;;;;;;6.33;5.73;;;10.20;99.90;;;;;;5051721;28;20213;-65
2023/02/18 11:21:25;;;;;;;6.17;5.87;;;10.30;99.90;;;;;;5051555;28;20193;-65
2023/02/18 11:23:53;;;;;;;5.80;5.50;;;10.30;99.90;;;;;;5051501;28;20655;-64
2023/02/18 11:26:30;;;;;;;6.33;6.03;;;10.30;99.90;;;;;;5050837;28;20229;-64
2023/02/18 11:29:02;;;;;;;6.47;5.67;;;10.30;99.90;;;;;;5051692;28;20174;-65
2023/02/18 11:31:39;;;;;;;6.37;6.07;;;10.30;99.90;;;;;;5051628;28;20226;-65
2023/02/18 11:34:05;;;;;;;5.97;5.67;;;10.20;99.90;;;;;;5051806;28;20175;-65
2023/02/18 11:36:34;;;;;;;5.47;5.17;;;10.20;99.90;;;;;;5051751;28;20634;-65
2023/02/18 11:39:28;;;;;;;6.10;5.80;;;10.20;99.90;;;;;;5051651;28;20175;-64
2023/02/18 11:42:04;;;;;;;6.00;5.70;;;10.20;99.90;;;;;;5051502;28;20545;-64
2023/02/18 11:44:40;;;;;;;5.90;5.60;;;10.10;99.90;;;;;;5050189;28;20212;-64
2023/02/18 11:47:11;;;;;;;6.40;6.10;;;10.10;99.90;;;;;;5051387;28;20214;-65
2023/02/18 11:49:37;;;;;;;6.33;6.03;;;10.10;99.90;;;;;;5051131;28;20174;-65
2023/02/18 11:52:17;;;;;;;5.90;5.60;;;10.20;99.90;;;;;;5050907;28;20265;-64
2023/02/18 11:54:59;;;;;;;5.37;5.10;;;10.20;99.90;;;;;;5051424;28;20204;-65
2023/02/18 11:57:26;;;;;;;16.60;15.87;;;10.20;99.90;;;;;;5051395;28;20192;-66
2023/02/18 11:59:53;;;;;;;6.20;5.90;;;10.20;99.90;;;;;;5049810;28;20654;-65
2023/02/18 12:02:39;;;;;;;7.70;7.40;;;10.10;99.90;;;;;;5051324;28;20551;-65
2023/02/18 12:05:11;;;;;;;7.40;5.80;;;10.10;99.90;;;;;;5051301;28;20190;-65
2023/02/18 12:07:50;;;;;;;6.27;5.97;;;10.10;99.90;;;;;;5051238;28;20537;-66
2023/02/18 12:10:41;;;;;;;6.90;6.03;;;10.10;99.90;;;;;;5050963;28;20172;-64
2023/02/18 12:13:24;;;;;;;7.57;6.90;;;10.20;99.90;;;;;;5049852;28;20179;-65
2023/02/18 12:15:56;;;;;;;6.27;5.97;;;10.20;99.90;;;;;;5051568;28;20174;-64
2023/02/18 12:18:31;;;;;;;5.67;5.37;;;10.20;99.90;;;;;;5051324;28;20210;-64
2023/02/18 12:21:26;;;;;;;5.80;5.50;;;10.20;99.90;;;;;;5050871;28;20547;-64
2023/02/18 12:24:00;;;;;;;5.20;4.90;;;10.30;99.90;;;;;;5051283;28;20278;-65
2023/02/18 12:26:44;;;;;;;6.03;5.73;;;10.30;99.90;;;;;;5051177;28;20199;-64
2023/02/18 12:29:40;;;;;;;5.83;5.60;;;10.30;99.90;;;;;;5050831;28;20237;-64
2023/02/18 12:32:08;;;;;;;7.60;7.20;;;10.20;99.90;;;;;;5051074;28;20175;-65
2023/02/18 12:35:04;;;;;;;10.17;9.57;;;10.20;99.90;;;;;;5051116;28;20175;-65
2023/02/18 12:37:37;;;;;;;6.20;5.90;;;10.20;99.90;;;;;;5053358;28;20198;-65
2023/02/18 12:40:25;;;;;;;6.70;6.30;;;10.30;99.90;;;;;;5054500;28;20182;-65
2023/02/18 12:43:03;;;;;;;5.33;5.13;;;10.30;99.90;;;;;;5053451;28;20210;-64
2023/02/18 12:45:44;;;;;;;8.23;7.83;;;10.30;99.90;;;;;;5054594;28;20291;-65
2023/02/18 12:48:25;;;;;;;6.37;5.90;;;10.30;99.90;;;;;;5054664;28;20648;-64
2023/02/18 12:50:59;;;;;;;5.53;5.27;;;10.40;99.90;;;;;;5054277;28;20170;-65
2023/02/18 12:53:53;;;;;;;6.17;5.77;;;10.40;99.90;;;;;;5053760;28;20250;-65
2023/02/18 12:56:42;;;;;;;5.50;5.07;;;10.40;99.90;;;;;;5054505;28;20166;-64
2023/02/18 12:59:36;;;;;;;6.63;6.23;;;10.40;99.90;;;;;;5054232;28;20163;-65
2023/02/18 13:02:46;;;;;;;5.90;5.60;;;10.30;99.90;;;;;;5054154;28;20175;-64
2023/02/18 13:05:28;;;;;;;5.63;5.33;;;10.30;99.90;;;;;;5054231;28;20256;-64